Time;durP1;ratioP1;P1;durP2;ratioP2;P2;SDS_P1;SDS_P2;PMS_P1;PMS_P2;Temp;Humidity;BMP_temperature;BMP_pressure;BME280_temperature;BME280_humidity;BME280_pressure;Samples;Min_cycle;Max_cycle;Signal;HPM_P1;HPM_P2
2023/01/24 00:00:00;;;;;;;88.65;45.15;;;;;;;;;;1030643;28;20386;-74
2023/01/24 00:00:31;;;;;;;99.53;49.25;;;;;;;;;;1025802;28;20035;-74
2023/01/24 00:01:02;;;;;;;86.65;46.00;;;;;;;;;;1025179;28;20151;-75
2023/01/24 00:01:32;;;;;;;99.65;47.25;;;;;;;;;;1028694;28;20031;-75
2023/01/24 00:02:03;;;;;;;95.75;44.88;;;;;;;;;;1025656;28;20030;-74
2023/01/24 00:02:33;;;;;;;96.10;40.60;;;;;;;;;;1024847;28;20022;-75
2023/01/24 00:03:04;;;;;;;86.28;42.00;;;;;;;;;;1025010;28;20060;-75
2023/01/24 00:03:35;;;;;;;97.13;45.05;;;;;;;;;;1026996;28;20485;-75
2023/01/24 00:04:05;;;;;;;105.80;49.22;;;;;;;;;;1028114;28;20103;-75
2023/01/24 00:04:36;;;;;;;104.35;45.05;;;;;;;;;;1024721;28;20076;-75
2023/01/24 00:05:06;;;;;;;103.55;46.80;;;;;;;;;;1028994;28;20038;-75
2023/01/24 00:05:37;;;;;;;102.43;47.80;;;;;;;;;;1031236;28;20031;-75
2023/01/24 00:06:08;;;;;;;95.25;44.47;;;;;;;;;;1029171;28;20029;-74
2023/01/24 00:06:38;;;;;;;95.07;47.13;;;;;;;;;;1024790;28;20617;-75
2023/01/24 00:07:09;;;;;;;84.00;38.58;;;;;;;;;;1029509;28;20080;-75
2023/01/24 00:07:39;;;;;;;87.43;36.80;;;;;;;;;;1026472;28;20026;-74
2023/01/24 00:08:14;;;;;;;83.03;35.47;;;;;;;;;;1027703;28;20089;-74
2023/01/24 00:08:44;;;;;;;65.30;29.13;;;;;;;;;;1029064;28;20087;-74
2023/01/24 00:09:15;;;;;;;66.90;30.27;;;;;;;;;;1029859;28;20028;-74
2023/01/24 00:09:45;;;;;;;66.57;34.13;;;;;;;;;;1028382;28;20131;-75
2023/01/24 00:10:16;;;;;;;66.53;38.42;;;;;;;;;;1025127;28;20014;-75
2023/01/24 00:10:47;;;;;;;40.97;22.98;;;;;;;;;;1025098;28;20051;-75
2023/01/24 00:11:18;;;;;;;47.10;22.23;;;;;;;;;;1029475;28;20479;-75
2023/01/24 00:11:48;;;;;;;44.13;22.35;;;;;;;;;;1025082;28;20024;-75
2023/01/24 00:12:19;;;;;;;61.83;23.20;;;;;;;;;;1024732;28;20021;-75
2023/01/24 00:12:49;;;;;;;56.28;23.13;;;;;;;;;;1025250;28;20057;-75
2023/01/24 00:13:20;;;;;;;58.83;26.60;;;;;;;;;;1028745;28;20474;-74
2023/01/24 00:13:50;;;;;;;51.65;25.30;;;;;;;;;;1020303;28;20050;-75
2023/01/24 00:14:21;;;;;;;72.55;29.95;;;;;;;;;;1029471;28;20100;-74
2023/01/24 00:14:53;;;;;;;100.45;42.33;;;;;;;;;;1028574;28;20126;-75
2023/01/24 00:15:23;;;;;;;86.82;36.58;;;;;;;;;;1024646;28;20020;-74
2023/01/24 00:16:26;;;;;;;69.68;29.75;;;;;;;;;;1024738;28;20422;-75
2023/01/24 00:16:56;;;;;;;59.25;27.05;;;;;;;;;;1013908;29;20115;-75
2023/01/24 00:17:27;;;;;;;80.90;33.50;;;;;;;;;;1013768;29;20102;-75
2023/01/24 00:17:58;;;;;;;61.22;28.80;;;;;;;;;;1021008;28;20484;-74
2023/01/24 00:18:28;;;;;;;66.22;26.50;;;;;;;;;;1021581;28;20456;-74
2023/01/24 00:18:59;;;;;;;48.75;24.45;;;;;;;;;;1031279;28;20025;-74
2023/01/24 00:19:29;;;;;;;43.03;23.80;;;;;;;;;;1024751;28;20032;-74
2023/01/24 00:20:00;;;;;;;42.20;21.58;;;;;;;;;;1024556;28;20020;-74
2023/01/24 00:20:30;;;;;;;68.72;27.02;;;;;;;;;;1027820;28;20017;-74
2023/01/24 00:21:09;;;;;;;60.00;26.58;;;;;;;;;;1025601;28;20057;-74
2023/01/24 00:21:39;;;;;;;60.83;27.60;;;;;;;;;;1025366;28;20571;-75
2023/01/24 00:22:10;;;;;;;40.33;24.73;;;;;;;;;;1026168;28;20024;-75
2023/01/24 00:22:40;;;;;;;52.65;25.77;;;;;;;;;;1025803;28;20035;-75
2023/01/24 00:23:11;;;;;;;54.53;26.48;;;;;;;;;;1024782;28;20115;-75
2023/01/24 00:23:42;;;;;;;69.82;27.13;;;;;;;;;;1025972;28;20014;-74
2023/01/24 00:24:12;;;;;;;57.67;27.10;;;;;;;;;;1025473;28;20063;-74
2023/01/24 00:24:43;;;;;;;67.07;30.05;;;;;;;;;;1025118;28;20017;-74
2023/01/24 00:25:14;;;;;;;55.05;29.05;;;;;;;;;;1025570;28;20486;-74
2023/01/24 00:25:44;;;;;;;69.68;30.35;;;;;;;;;;1029983;28;20072;-74
2023/01/24 00:26:16;;;;;;;58.88;30.98;;;;;;;;;;1024617;28;20039;-74
2023/01/24 00:26:47;;;;;;;64.85;28.70;;;;;;;;;;1021565;28;20071;-74
2023/01/24 00:27:17;;;;;;;60.60;30.60;;;;;;;;;;1024748;28;20116;-74
2023/01/24 00:27:48;;;;;;;63.08;26.50;;;;;;;;;;1019346;28;20377;-75
2023/01/24 00:28:19;;;;;;;70.68;32.78;;;;;;;;;;1020257;28;20025;-75
2023/01/24 00:28:49;;;;;;;69.20;31.98;;;;;;;;;;1025022;28;20413;-75
2023/01/24 00:29:20;;;;;;;93.85;42.95;;;;;;;;;;1016253;28;20399;-75
2023/01/24 00:29:50;;;;;;;133.48;53.28;;;;;;;;;;1022908;28;20033;-75
2023/01/24 00:30:21;;;;;;;87.82;40.25;;;;;;;;;;1027244;28;20497;-75
2023/01/24 00:30:51;;;;;;;89.38;37.10;;;;;;;;;;1026866;28;20032;-75
2023/01/24 00:31:22;;;;;;;102.70;41.97;;;;;;;;;;1025399;28;20023;-75
2023/01/24 00:31:52;;;;;;;95.40;39.00;;;;;;;;;;1024851;28;20028;-75
2023/01/24 00:32:23;;;;;;;98.43;39.60;;;;;;;;;;1022521;28;21532;-74
2023/01/24 00:32:53;;;;;;;96.63;41.20;;;;;;;;;;1025152;28;20079;-75
2023/01/24 00:33:24;;;;;;;111.88;42.42;;;;;;;;;;1025051;28;20100;-75
2023/01/24 00:33:54;;;;;;;154.48;55.08;;;;;;;;;;1025253;28;20024;-75
2023/01/24 00:34:25;;;;;;;102.20;40.72;;;;;;;;;;1025737;28;20583;-74
2023/01/24 00:34:55;;;;;;;113.57;42.35;;;;;;;;;;1025756;28;20032;-75
2023/01/24 00:35:26;;;;;;;108.43;43.05;;;;;;;;;;1020036;28;20024;-75
2023/01/24 00:35:56;;;;;;;117.43;43.92;;;;;;;;;;1027998;28;20012;-74
2023/01/24 00:36:27;;;;;;;136.15;52.85;;;;;;;;;;1028927;28;20043;-74
2023/01/24 00:36:58;;;;;;;150.52;52.65;;;;;;;;;;1023924;28;20419;-75
2023/01/24 00:37:28;;;;;;;129.23;50.60;;;;;;;;;;1025090;28;20022;-74
2023/01/24 00:37:59;;;;;;;137.30;54.95;;;;;;;;;;1029644;28;20017;-74
2023/01/24 00:38:30;;;;;;;107.30;45.05;;;;;;;;;;1025459;28;20075;-75
2023/01/24 00:39:00;;;;;;;103.03;43.13;;;;;;;;;;1025148;28;20024;-74
2023/01/24 00:39:31;;;;;;;105.88;37.90;;;;;;;;;;1028853;28;20059;-74
2023/01/24 00:40:02;;;;;;;89.78;35.83;;;;;;;;;;1031357;28;20282;-75
2023/01/24 00:40:32;;;;;;;92.03;39.53;;;;;;;;;;1026516;28;20036;-75
2023/01/24 00:41:03;;;;;;;110.43;40.75;;;;;;;;;;1019445;28;20062;-75
2023/01/24 00:41:33;;;;;;;93.78;39.88;;;;;;;;;;1020208;28;20014;-75
2023/01/24 00:42:04;;;;;;;103.63;40.45;;;;;;;;;;1012839;28;20594;-75
2023/01/24 00:42:35;;;;;;;112.38;41.30;;;;;;;;;;1026146;28;20113;-75
2023/01/24 00:43:05;;;;;;;102.18;40.72;;;;;;;;;;1025649;28;20035;-75
2023/01/24 00:43:36;;;;;;;101.13;39.78;;;;;;;;;;1024565;28;20037;-75
2023/01/24 00:44:06;;;;;;;94.47;37.78;;;;;;;;;;1025156;28;20409;-74
2023/01/24 00:44:37;;;;;;;93.53;40.60;;;;;;;;;;1026354;28;20093;-75
2023/01/24 00:45:07;;;;;;;103.88;40.78;;;;;;;;;;1025545;28;20028;-75
2023/01/24 00:45:38;;;;;;;120.07;44.50;;;;;;;;;;1023362;28;20037;-75
2023/01/24 00:46:09;;;;;;;120.57;43.70;;;;;;;;;;1023452;28;20551;-74
2023/01/24 00:46:40;;;;;;;115.47;44.35;;;;;;;;;;1022309;28;20012;-75
2023/01/24 00:47:11;;;;;;;111.47;43.35;;;;;;;;;;1025017;28;20014;-75
2023/01/24 00:47:41;;;;;;;134.13;52.45;;;;;;;;;;1024512;28;20459;-75
2023/01/24 00:48:12;;;;;;;131.77;48.22;;;;;;;;;;1025165;28;20022;-75
2023/01/24 00:48:43;;;;;;;135.63;48.53;;;;;;;;;;1022600;28;20032;-75
2023/01/24 00:49:13;;;;;;;109.38;42.40;;;;;;;;;;1022285;28;20028;-75
2023/01/24 00:49:44;;;;;;;117.07;45.03;;;;;;;;;;1023659;28;20561;-75
2023/01/24 00:50:15;;;;;;;122.22;45.60;;;;;;;;;;1024545;28;20373;-74
2023/01/24 00:50:45;;;;;;;139.85;47.50;;;;;;;;;;1025004;28;20020;-74
2023/01/24 00:51:16;;;;;;;116.45;45.60;;;;;;;;;;1025816;28;20030;-74
2023/01/24 00:51:46;;;;;;;131.40;49.15;;;;;;;;;;1027823;28;20387;-75
2023/01/24 00:52:17;;;;;;;154.73;60.55;;;;;;;;;;1024984;28;20050;-74
2023/01/24 00:52:47;;;;;;;161.20;60.85;;;;;;;;;;1034421;28;20479;-75
2023/01/24 00:53:19;;;;;;;139.07;53.70;;;;;;;;;;1028116;28;20052;-77
2023/01/24 00:53:49;;;;;;;214.13;72.07;;;;;;;;;;1024143;28;20061;-75
2023/01/24 00:54:20;;;;;;;181.50;64.70;;;;;;;;;;1022110;28;20053;-75
2023/01/24 00:54:51;;;;;;;144.13;54.80;;;;;;;;;;1024156;28;20049;-74
2023/01/24 00:55:21;;;;;;;138.30;56.88;;;;;;;;;;1025019;28;20059;-75
2023/01/24 00:55:54;;;;;;;137.82;53.60;;;;;;;;;;1024874;28;20124;-75
2023/01/24 00:56:25;;;;;;;144.85;50.08;;;;;;;;;;1025492;28;20376;-75
2023/01/24 00:56:55;;;;;;;160.98;56.30;;;;;;;;;;1024852;28;20024;-75
2023/01/24 00:57:26;;;;;;;291.75;92.22;;;;;;;;;;1025324;28;20043;-75
2023/01/24 00:57:56;;;;;;;237.52;79.93;;;;;;;;;;1025212;28;20066;-75
2023/01/24 00:58:27;;;;;;;232.00;75.82;;;;;;;;;;1027246;28;20484;-75
2023/01/24 00:58:57;;;;;;;193.77;68.57;;;;;;;;;;1025619;28;20392;-75
2023/01/24 00:59:28;;;;;;;209.77;70.85;;;;;;;;;;1024416;28;20118;-77
2023/01/24 00:59:58;;;;;;;204.32;72.43;;;;;;;;;;1024421;28;20018;-77
2023/01/24 01:00:29;;;;;;;222.23;78.28;;;;;;;;;;1028683;28;20027;-77
2023/01/24 01:01:02;;;;;;;220.63;79.15;;;;;;;;;;1026093;28;20110;-77
2023/01/24 01:01:32;;;;;;;230.82;76.95;;;;;;;;;;1029141;28;20087;-77
2023/01/24 01:02:03;;;;;;;216.35;73.68;;;;;;;;;;1025503;28;20030;-77
2023/01/24 01:02:33;;;;;;;232.77;78.85;;;;;;;;;;1020043;28;20433;-75
2023/01/24 01:03:04;;;;;;;216.13;75.50;;;;;;;;;;1022881;28;20076;-75
2023/01/24 01:03:35;;;;;;;170.45;63.03;;;;;;;;;;1029443;28;20374;-74
2023/01/24 01:04:05;;;;;;;176.90;60.63;;;;;;;;;;1028683;28;20017;-74
2023/01/24 01:04:36;;;;;;;165.88;58.92;;;;;;;;;;1023554;28;20028;-75
2023/01/24 01:05:07;;;;;;;182.25;67.35;;;;;;;;;;1029215;28;20083;-75
2023/01/24 01:05:37;;;;;;;166.43;60.83;;;;;;;;;;1028974;28;20363;-74
2023/01/24 01:06:11;;;;;;;174.68;60.53;;;;;;;;;;1021740;28;20018;-75
2023/01/24 01:06:43;;;;;;;157.80;58.22;;;;;;;;;;1024352;28;20035;-74
2023/01/24 01:07:14;;;;;;;225.32;76.70;;;;;;;;;;1025934;28;20503;-75
2023/01/24 01:07:44;;;;;;;222.18;78.30;;;;;;;;;;1023215;28;20110;-75
2023/01/24 01:08:15;;;;;;;196.45;71.30;;;;;;;;;;1029127;28;20021;-75
2023/01/24 01:08:45;;;;;;;245.20;83.63;;;;;;;;;;1032385;28;20116;-74
2023/01/24 01:09:16;;;;;;;236.45;82.93;;;;;;;;;;1029215;28;21638;-74
2023/01/24 01:09:47;;;;;;;220.70;82.20;;;;;;;;;;1025491;28;20028;-74
2023/01/24 01:10:17;;;;;;;210.07;82.03;;;;;;;;;;1024213;28;20126;-74
2023/01/24 01:10:48;;;;;;;217.90;80.38;;;;;;;;;;1025573;28;20544;-75
2023/01/24 01:11:18;;;;;;;222.93;86.85;;;;;;;;;;1026400;28;20021;-75
2023/01/24 01:11:49;;;;;;;205.95;76.50;;;;;;;;;;1027013;28;20565;-75
2023/01/24 01:12:19;;;;;;;208.15;79.25;;;;;;;;;;1022472;28;20071;-75
2023/01/24 01:12:50;;;;;;;234.02;86.07;;;;;;;;;;1023304;28;20047;-75
2023/01/24 01:13:20;;;;;;;234.43;93.65;;;;;;;;;;1024386;28;20492;-75
2023/01/24 01:13:53;;;;;;;353.05;134.68;;;;;;;;;;1023246;28;20038;-75
2023/01/24 01:14:24;;;;;;;280.55;117.60;;;;;;;;;;1029955;28;20068;-77
2023/01/24 01:14:54;;;;;;;326.38;139.85;;;;;;;;;;1026483;28;20085;-77
2023/01/24 01:15:25;;;;;;;353.60;139.50;;;;;;;;;;1020289;28;20024;-75
2023/01/24 01:16:06;;;;;;;312.35;119.90;;;;;;;;;;1020785;28;20484;-77
2023/01/24 01:16:39;;;;;;;306.83;122.03;;;;;;;;;;1026228;28;20081;-77
2023/01/24 01:17:09;;;;;;;294.42;111.82;;;;;;;;;;1032933;28;20066;-77
2023/01/24 01:17:40;;;;;;;322.90;124.63;;;;;;;;;;1035096;28;20496;-77
2023/01/24 01:18:10;;;;;;;261.75;100.28;;;;;;;;;;1035635;28;20032;-76
2023/01/24 01:18:41;;;;;;;274.77;109.35;;;;;;;;;;1028550;28;20055;-76
2023/01/24 01:19:11;;;;;;;253.07;100.25;;;;;;;;;;1028896;28;20089;-77
2023/01/24 01:19:42;;;;;;;252.13;102.47;;;;;;;;;;1020783;28;20388;-77
2023/01/24 01:20:13;;;;;;;204.45;88.55;;;;;;;;;;1028067;28;20611;-76
2023/01/24 01:20:49;;;;;;;238.50;98.53;;;;;;;;;;1028097;28;20018;-77
2023/01/24 01:21:20;;;;;;;249.70;102.70;;;;;;;;;;1025236;28;20138;-76
2023/01/24 01:21:51;;;;;;;248.75;103.45;;;;;;;;;;1022970;28;20027;-77
2023/01/24 01:22:21;;;;;;;275.75;107.85;;;;;;;;;;1018379;28;20517;-77
2023/01/24 01:22:52;;;;;;;271.55;109.60;;;;;;;;;;1021566;28;20029;-76
2023/01/24 01:23:22;;;;;;;274.27;109.22;;;;;;;;;;1026520;28;20025;-77
2023/01/24 01:23:53;;;;;;;274.50;112.55;;;;;;;;;;1027625;28;20627;-76
2023/01/24 01:24:23;;;;;;;269.48;110.70;;;;;;;;;;1025029;28;20023;-77
2023/01/24 01:24:55;;;;;;;230.95;89.90;;;;;;;;;;1024605;28;20045;-76
2023/01/24 01:25:25;;;;;;;178.75;68.97;;;;;;;;;;1023431;28;20521;-76
2023/01/24 01:25:59;;;;;;;175.43;71.20;;;;;;;;;;1025609;28;20032;-77
2023/01/24 01:26:31;;;;;;;183.93;70.45;;;;;;;;;;1024331;28;20544;-77
2023/01/24 01:27:02;;;;;;;176.32;63.85;;;;;;;;;;1025151;28;20466;-76
2023/01/24 01:27:32;;;;;;;188.18;72.40;;;;;;;;;;1028734;28;20032;-76
2023/01/24 01:28:03;;;;;;;168.18;68.88;;;;;;;;;;1026284;28;20025;-77
2023/01/24 01:28:34;;;;;;;144.70;61.17;;;;;;;;;;1024283;28;20369;-77
2023/01/24 01:29:04;;;;;;;150.70;63.38;;;;;;;;;;1029080;28;20064;-77
2023/01/24 01:29:35;;;;;;;182.80;67.82;;;;;;;;;;1029464;28;20401;-77
2023/01/24 01:30:06;;;;;;;188.82;76.90;;;;;;;;;;1018570;28;20503;-77
2023/01/24 01:30:36;;;;;;;191.38;73.82;;;;;;;;;;1021422;28;20031;-77
2023/01/24 01:31:07;;;;;;;182.88;76.63;;;;;;;;;;1026565;28;20024;-77
2023/01/24 01:31:37;;;;;;;183.25;74.45;;;;;;;;;;1023544;28;20518;-77
2023/01/24 01:32:08;;;;;;;174.07;71.28;;;;;;;;;;1026252;28;21335;-77
2023/01/24 01:32:38;;;;;;;188.70;71.68;;;;;;;;;;1024568;28;20055;-77
2023/01/24 01:33:09;;;;;;;171.38;69.60;;;;;;;;;;1019351;28;20034;-76
2023/01/24 01:33:39;;;;;;;178.20;70.43;;;;;;;;;;1023888;28;20421;-77
2023/01/24 01:34:10;;;;;;;157.45;67.45;;;;;;;;;;1020828;28;20028;-77
2023/01/24 01:34:40;;;;;;;167.13;68.60;;;;;;;;;;1030138;28;20030;-77
2023/01/24 01:35:11;;;;;;;174.95;66.32;;;;;;;;;;1027722;28;20418;-76
2023/01/24 01:35:42;;;;;;;164.43;68.82;;;;;;;;;;1026216;28;20513;-77
2023/01/24 01:36:12;;;;;;;160.68;67.78;;;;;;;;;;1026507;28;20495;-76
2023/01/24 01:36:43;;;;;;;153.57;64.75;;;;;;;;;;1020447;28;20074;-77
2023/01/24 01:37:14;;;;;;;162.02;66.45;;;;;;;;;;1020326;28;20024;-77
2023/01/24 01:37:44;;;;;;;156.52;64.82;;;;;;;;;;1020549;28;20035;-77
2023/01/24 01:38:15;;;;;;;150.23;64.40;;;;;;;;;;1023204;28;20028;-76
2023/01/24 01:38:46;;;;;;;158.50;63.78;;;;;;;;;;1023080;28;20031;-75
2023/01/24 01:39:16;;;;;;;174.80;68.95;;;;;;;;;;1021719;28;20031;-74
2023/01/24 01:39:47;;;;;;;136.00;60.25;;;;;;;;;;1026179;28;20037;-75
2023/01/24 01:40:18;;;;;;;149.43;61.22;;;;;;;;;;1026374;28;20026;-74
2023/01/24 01:40:49;;;;;;;149.48;64.38;;;;;;;;;;1028235;28;20079;-74
2023/01/24 01:41:19;;;;;;;139.10;59.90;;;;;;;;;;1027196;28;20508;-75
2023/01/24 01:41:50;;;;;;;128.70;59.17;;;;;;;;;;1028388;28;20032;-74
2023/01/24 01:42:20;;;;;;;136.18;59.05;;;;;;;;;;1029170;28;20023;-74
2023/01/24 01:42:54;;;;;;;147.00;62.80;;;;;;;;;;1028617;28;20569;-74
2023/01/24 01:43:27;;;;;;;139.25;58.15;;;;;;;;;;1023926;28;20113;-75
2023/01/24 01:45:24;;;;;;;119.32;50.78;;;;;;;;;;1029223;28;20479;-77
2023/01/24 01:45:58;;;;;;;116.00;49.90;;;;;;;;;;1029197;28;20029;-77
2023/01/24 01:46:31;;;;;;;108.78;47.78;;;;;;;;;;1028611;28;20026;-74
2023/01/24 01:47:02;;;;;;;129.23;49.45;;;;;;;;;;1028829;28;20037;-75
2023/01/24 01:47:34;;;;;;;122.57;52.20;;;;;;;;;;1030584;28;20028;-75
2023/01/24 01:48:25;;;;;;;129.30;54.25;;;;;;;;;;1025002;28;20032;-75
2023/01/24 01:48:59;;;;;;;125.70;52.55;;;;;;;;;;1022330;28;20432;-75
2023/01/24 01:49:30;;;;;;;131.27;52.10;;;;;;;;;;1024550;28;20473;-75
2023/01/24 01:50:01;;;;;;;111.80;48.88;;;;;;;;;;1028610;28;20017;-75
2023/01/24 01:50:34;;;;;;;126.10;56.58;;;;;;;;;;1030843;28;20484;-75
2023/01/24 01:51:11;;;;;;;79.00;40.50;;;;;;;;;;1028643;28;20553;-75
2023/01/24 01:51:45;;;;;;;110.78;44.85;;;;;;;;;;1028939;28;20018;-75
2023/01/24 01:52:16;;;;;;;86.60;41.72;;;;;;;;;;1026878;28;20040;-75
2023/01/24 01:52:47;;;;;;;55.13;27.23;;;;;;;;;;1021992;28;20367;-74
2023/01/24 01:53:17;;;;;;;90.22;40.78;;;;;;;;;;1022446;28;20057;-74
2023/01/24 01:53:55;;;;;;;95.60;45.15;;;;;;;;;;1025230;28;20537;-75
2023/01/24 01:54:31;;;;;;;102.88;41.30;;;;;;;;;;1020862;28;20028;-74
2023/01/24 01:55:04;;;;;;;69.28;35.85;;;;;;;;;;1029309;28;20018;-75
2023/01/24 01:55:37;;;;;;;96.10;37.40;;;;;;;;;;1021453;28;20052;-75
2023/01/24 01:56:14;;;;;;;71.65;37.90;;;;;;;;;;1021722;28;20120;-75
2023/01/24 01:56:50;;;;;;;83.10;36.65;;;;;;;;;;1033334;28;20505;-75
2023/01/24 01:57:22;;;;;;;80.55;35.97;;;;;;;;;;1024490;28;20030;-74
2023/01/24 01:57:53;;;;;;;77.30;34.55;;;;;;;;;;1023394;28;21445;-74
2023/01/24 01:58:24;;;;;;;73.63;34.88;;;;;;;;;;1024262;28;20032;-75
2023/01/24 01:58:56;;;;;;;69.75;34.65;;;;;;;;;;1022366;28;20020;-74
2023/01/24 01:59:28;;;;;;;76.68;41.30;;;;;;;;;;1024642;28;20053;-74
2023/01/24 02:00:19;;;;;;;72.97;37.17;;;;;;;;;;1030465;28;20495;-75
2023/01/24 02:00:50;;;;;;;70.15;33.38;;;;;;;;;;1021376;28;20047;-75
2023/01/24 02:01:20;;;;;;;72.85;36.65;;;;;;;;;;1030109;28;20453;-75
2023/01/24 02:01:52;;;;;;;64.40;34.90;;;;;;;;;;1023712;28;20470;-75
2023/01/24 02:02:23;;;;;;;68.25;36.42;;;;;;;;;;1026007;28;20032;-75
2023/01/24 02:03:37;;;;;;;79.07;38.40;;;;;;;;;;1029498;28;20030;-75
2023/01/24 02:03:49;;;;;;;74.25;32.03;;;;;;;;;;1027724;28;20112;-75
2023/01/24 02:04:25;;;;;;;59.33;29.95;;;;;;;;;;1016663;28;20096;-75
2023/01/24 02:04:58;;;;;;;68.63;30.63;;;;;;;;;;1029168;28;20028;-74
2023/01/24 02:05:29;;;;;;;60.42;29.98;;;;;;;;;;1025245;28;20068;-75
2023/01/24 02:05:59;;;;;;;63.53;32.38;;;;;;;;;;1022680;28;20125;-74
2023/01/24 02:06:36;;;;;;;61.53;33.58;;;;;;;;;;1023365;28;20035;-74
2023/01/24 02:07:09;;;;;;;63.63;33.03;;;;;;;;;;1027957;28;20024;-75
2023/01/24 02:07:39;;;;;;;71.05;32.72;;;;;;;;;;1023810;28;20023;-77
2023/01/24 02:08:12;;;;;;;54.47;28.70;;;;;;;;;;1024788;28;20018;-75
2023/01/24 02:08:43;;;;;;;58.65;29.90;;;;;;;;;;1029287;28;20083;-75
2023/01/24 02:09:16;;;;;;;68.72;31.27;;;;;;;;;;1028828;28;20125;-77
2023/01/24 02:09:49;;;;;;;70.18;32.08;;;;;;;;;;1029781;28;20028;-75
2023/01/24 02:10:21;;;;;;;61.05;30.23;;;;;;;;;;1025266;28;20017;-76
2023/01/24 02:11:41;;;;;;;54.50;26.20;;;;;;;;;;1021887;28;20482;-75
2023/01/24 02:12:24;;;;;;;73.25;31.27;;;;;;;;;;1019240;28;20248;-75
2023/01/24 02:12:54;;;;;;;60.85;29.20;;;;;;;;;;1025139;28;20092;-75
2023/01/24 02:13:25;;;;;;;59.63;30.55;;;;;;;;;;1018241;28;20087;-75
2023/01/24 02:16:02;;;;;;;67.30;32.38;;;;;;;;;;1020014;28;20048;-75
2023/01/24 02:16:29;;;;;;;57.42;27.70;;;;;;;;;;1022968;28;20021;-75
2023/01/24 02:17:00;;;;;;;56.05;27.25;;;;;;;;;;1027474;28;20030;-75
2023/01/24 02:17:31;;;;;;;52.00;25.95;;;;;;;;;;1018326;28;20064;-75
2023/01/24 02:18:03;;;;;;;56.45;26.75;;;;;;;;;;1023652;28;20025;-75
2023/01/24 02:18:38;;;;;;;61.42;29.08;;;;;;;;;;1020869;28;20136;-75
2023/01/24 02:19:13;;;;;;;61.92;27.60;;;;;;;;;;1022018;28;20176;-75
2023/01/24 02:20:01;;;;;;;56.55;26.80;;;;;;;;;;1021715;28;20438;-75
2023/01/24 02:20:36;;;;;;;54.10;29.17;;;;;;;;;;1027848;28;20030;-75
2023/01/24 02:21:15;;;;;;;67.72;26.75;;;;;;;;;;1022779;28;20025;-75
2023/01/24 02:21:46;;;;;;;57.17;26.58;;;;;;;;;;1023289;28;20078;-75
2023/01/24 02:22:24;;;;;;;51.58;23.67;;;;;;;;;;1024093;28;20020;-75
2023/01/24 02:23:01;;;;;;;53.80;24.95;;;;;;;;;;1020748;28;20091;-75
2023/01/24 02:23:37;;;;;;;51.35;24.45;;;;;;;;;;1021254;28;20028;-75
2023/01/24 02:24:17;;;;;;;48.90;22.85;;;;;;;;;;1018241;28;20029;-75
2023/01/24 02:25:06;;;;;;;52.15;24.05;;;;;;;;;;1020459;28;20511;-75
2023/01/24 02:25:43;;;;;;;49.13;21.10;;;;;;;;;;1028081;28;20025;-75
2023/01/24 02:26:17;;;;;;;47.08;22.33;;;;;;;;;;1026685;28;20022;-75
2023/01/24 02:26:48;;;;;;;51.67;24.88;;;;;;;;;;1021718;28;20036;-75
2023/01/24 02:27:18;;;;;;;47.90;21.73;;;;;;;;;;1022013;28;20112;-75
2023/01/24 02:27:49;;;;;;;44.78;21.85;;;;;;;;;;1017017;28;20030;-75
2023/01/24 02:28:20;;;;;;;41.47;21.90;;;;;;;;;;1019383;28;20024;-75
2023/01/24 02:28:55;;;;;;;47.03;21.98;;;;;;;;;;1020646;28;20126;-75
2023/01/24 02:29:26;;;;;;;39.55;18.90;;;;;;;;;;1019835;28;20024;-75
2023/01/24 02:29:57;;;;;;;43.90;22.63;;;;;;;;;;1027612;28;20568;-75
2023/01/24 02:30:28;;;;;;;48.55;21.13;;;;;;;;;;1028760;28;20029;-75
2023/01/24 02:30:59;;;;;;;45.28;22.35;;;;;;;;;;1028678;28;20509;-76
2023/01/24 02:31:30;;;;;;;57.97;24.25;;;;;;;;;;1025407;28;20020;-75
2023/01/24 02:32:02;;;;;;;37.83;20.10;;;;;;;;;;1024970;28;20030;-75
2023/01/24 02:32:32;;;;;;;42.60;21.13;;;;;;;;;;1025816;28;20032;-75
2023/01/24 02:33:13;;;;;;;47.28;19.50;;;;;;;;;;1027446;28;20016;-75
2023/01/24 02:33:44;;;;;;;33.00;18.42;;;;;;;;;;1020164;28;20028;-75
2023/01/24 02:34:14;;;;;;;42.40;17.10;;;;;;;;;;1021541;28;20032;-75
2023/01/24 02:34:45;;;;;;;28.05;18.00;;;;;;;;;;1021577;28;20024;-75
2023/01/24 02:35:29;;;;;;;45.03;21.13;;;;;;;;;;1028275;28;20033;-75
2023/01/24 02:36:18;;;;;;;44.60;21.00;;;;;;;;;;1024216;28;20027;-75
2023/01/24 02:36:54;;;;;;;40.28;17.98;;;;;;;;;;1029776;28;20041;-76
2023/01/24 02:37:25;;;;;;;50.72;18.42;;;;;;;;;;1026564;28;20503;-75
2023/01/24 02:37:57;;;;;;;43.28;17.45;;;;;;;;;;1023217;28;20396;-75
2023/01/24 02:38:28;;;;;;;44.53;18.70;;;;;;;;;;1031529;28;20028;-75
2023/01/24 02:39:01;;;;;;;52.30;20.10;;;;;;;;;;1027546;28;20428;-75
2023/01/24 02:39:40;;;;;;;46.75;19.08;;;;;;;;;;1029776;28;20022;-75
2023/01/24 02:40:11;;;;;;;40.03;20.48;;;;;;;;;;1028049;28;20572;-76
2023/01/24 02:40:41;;;;;;;35.10;17.50;;;;;;;;;;1026656;28;20018;-75
2023/01/24 02:41:13;;;;;;;43.22;21.00;;;;;;;;;;1017351;28;20061;-75
2023/01/24 02:41:47;;;;;;;50.65;20.88;;;;;;;;;;1018927;28;20028;-75
2023/01/24 02:42:20;;;;;;;49.58;20.25;;;;;;;;;;1026377;28;20031;-76
2023/01/24 02:42:52;;;;;;;46.13;21.27;;;;;;;;;;1024220;28;20031;-75
2023/01/24 02:43:25;;;;;;;51.03;23.02;;;;;;;;;;1026195;28;20055;-76
2023/01/24 02:43:58;;;;;;;51.03;22.05;;;;;;;;;;1023118;28;20051;-75
2023/01/24 02:44:32;;;;;;;45.85;22.77;;;;;;;;;;1024280;28;20496;-75
2023/01/24 02:45:09;;;;;;;48.25;20.98;;;;;;;;;;1024395;28;20030;-75
2023/01/24 02:45:40;;;;;;;53.47;25.15;;;;;;;;;;1022862;28;20028;-75
2023/01/24 02:46:10;;;;;;;61.17;25.13;;;;;;;;;;1024686;28;20024;-75
2023/01/24 02:46:44;;;;;;;54.50;25.40;;;;;;;;;;1023576;28;20021;-75
2023/01/24 02:47:15;;;;;;;61.85;23.55;;;;;;;;;;1022671;28;20026;-75
2023/01/24 02:47:47;;;;;;;56.33;26.23;;;;;;;;;;1026739;28;20091;-75
2023/01/24 02:48:18;;;;;;;48.72;23.92;;;;;;;;;;1026934;28;20337;-75
2023/01/24 02:48:51;;;;;;;53.38;24.33;;;;;;;;;;1022531;28;20355;-75
2023/01/24 02:49:21;;;;;;;59.30;25.42;;;;;;;;;;1016142;28;20068;-75
2023/01/24 02:49:52;;;;;;;63.20;26.45;;;;;;;;;;1023198;28;20437;-76
2023/01/24 02:50:25;;;;;;;52.22;27.00;;;;;;;;;;1025576;28;20021;-74
2023/01/24 02:53:31;;;;;;;47.92;19.25;;;;;;;;;;1022646;28;20028;-74
2023/01/24 02:54:02;;;;;;;53.63;22.73;;;;;;;;;;1020356;28;20032;-75
2023/01/24 02:54:32;;;;;;;59.28;25.30;;;;;;;;;;1025344;28;20260;-77
2023/01/24 02:55:03;;;;;;;45.97;21.75;;;;;;;;;;1020338;28;20076;-77
2023/01/24 02:58:05;;;;;;;43.13;18.45;;;;;;;;;;1020257;28;20024;-76
2023/01/24 02:58:05;;;;;;;45.05;23.42;;;;;;;;;;1025621;28;20028;-77
2023/01/24 02:58:36;;;;;;;62.95;21.58;;;;;;;;;;1023142;28;20030;-77
2023/01/24 02:59:06;;;;;;;39.05;21.02;;;;;;;;;;1025345;28;20064;-76
2023/01/24 02:59:37;;;;;;;52.78;19.95;;;;;;;;;;1022097;28;20038;-77
2023/01/24 03:00:08;;;;;;;51.60;23.20;;;;;;;;;;1026112;28;20039;-77
2023/01/24 03:00:40;;;;;;;43.25;20.00;;;;;;;;;;1024842;28;20023;-77
2023/01/24 03:01:11;;;;;;;56.97;21.90;;;;;;;;;;1026992;28;20036;-78
2023/01/24 03:01:41;;;;;;;50.75;22.15;;;;;;;;;;1021585;28;20115;-77
2023/01/24 03:02:13;;;;;;;46.22;21.83;;;;;;;;;;1024469;28;20034;-77
2023/01/24 03:02:44;;;;;;;40.92;20.02;;;;;;;;;;1019032;28;20047;-74
2023/01/24 03:03:14;;;;;;;40.75;19.45;;;;;;;;;;1021506;28;20469;-75
2023/01/24 03:03:45;;;;;;;36.42;19.38;;;;;;;;;;1014174;28;20024;-77
2023/01/24 03:04:17;;;;;;;39.08;20.63;;;;;;;;;;1017600;28;20123;-77
2023/01/24 03:04:48;;;;;;;37.88;18.85;;;;;;;;;;1019835;28;20025;-74
2023/01/24 03:05:18;;;;;;;37.60;19.85;;;;;;;;;;1024830;28;20158;-75
2023/01/24 03:05:58;;;;;;;47.28;19.67;;;;;;;;;;1020801;28;20024;-75
2023/01/24 03:06:29;;;;;;;43.75;18.27;;;;;;;;;;1022713;28;20037;-75
2023/01/24 03:06:59;;;;;;;41.83;18.98;;;;;;;;;;1022653;28;20168;-76
2023/01/24 03:07:41;;;;;;;39.58;17.40;;;;;;;;;;1019049;28;20064;-75
2023/01/24 03:08:11;;;;;;;36.08;17.75;;;;;;;;;;1026892;28;20403;-75
2023/01/24 03:08:42;;;;;;;27.73;13.38;;;;;;;;;;1020658;28;20022;-76
2023/01/24 03:09:19;;;;;;;33.95;17.58;;;;;;;;;;1013093;28;20669;-76
2023/01/24 03:09:49;;;;;;;40.35;16.70;;;;;;;;;;1020460;28;20497;-75
2023/01/24 03:10:20;;;;;;;30.42;16.98;;;;;;;;;;1021527;28;20032;-75
2023/01/24 03:10:51;;;;;;;40.72;19.40;;;;;;;;;;1019487;28;20049;-75
2023/01/24 03:11:21;;;;;;;31.73;16.30;;;;;;;;;;1023942;28;21046;-75
2023/01/24 03:11:52;;;;;;;34.38;16.40;;;;;;;;;;1020268;28;20039;-75
2023/01/24 03:34:32;;;;;;;50.85;22.23;;;;;;;;;;1026293;28;20017;-77
2023/01/24 03:35:02;;;;;;;;;;;;;;;;;;1022768;28;20020;-76
2023/01/24 03:35:33;;;;;;;34.75;19.42;;;;;;;;;;1023574;28;19917;-76